createdAt,value
2019-05-28T00:01:17.676Z,997.05
2019-05-28T00:06:16.660Z,997.10
2019-05-28T00:11:15.614Z,997.10
2019-05-28T00:16:14.692Z,997.07
2019-05-28T00:21:15.607Z,997.02
2019-05-28T00:26:14.668Z,997.03
2019-05-28T00:31:13.914Z,996.98
2019-05-28T00:36:13.602Z,996.92
2019-05-28T00:41:13.614Z,996.95
2019-05-28T00:46:13.600Z,996.93
2019-05-28T00:51:12.764Z,996.82
2019-05-28T00:56:12.619Z,996.79
2019-05-28T01:01:13.596Z,996.61
2019-05-28T01:06:12.612Z,996.61
2019-05-28T01:11:11.611Z,996.62
2019-05-28T01:16:12.746Z,996.54
2019-05-28T01:21:12.001Z,996.57
2019-05-28T01:26:10.700Z,996.57
2019-05-28T01:31:09.681Z,996.54
2019-05-28T01:36:08.844Z,996.49
2019-05-28T01:41:08.628Z,996.47
2019-05-28T01:46:08.642Z,996.39
2019-05-28T01:51:08.652Z,996.31
2019-05-28T01:56:08.616Z,996.31
2019-05-28T02:01:12.671Z,996.25
2019-05-28T02:06:08.704Z,996.28
2019-05-28T02:11:08.640Z,996.19
2019-05-28T02:16:07.668Z,996.22
2019-05-28T02:21:07.584Z,996.32
2019-05-28T02:26:08.634Z,996.27
2019-05-28T02:31:07.741Z,996.19
2019-05-28T02:41:08.543Z,996.14
2019-05-28T02:46:08.189Z,996.14
2019-05-28T02:51:06.683Z,996.22
2019-05-28T02:56:06.816Z,996.25
2019-05-28T03:01:06.661Z,996.22
2019-05-28T03:06:07.627Z,996.18
2019-05-28T03:11:07.691Z,996.14
2019-05-28T03:16:06.679Z,996.17
2019-05-28T03:21:06.697Z,996.08
2019-05-28T03:26:06.695Z,996.02
2019-05-28T03:31:06.649Z,996.14
2019-05-28T03:36:06.666Z,996.14
2019-05-28T03:41:06.649Z,996.17
2019-05-28T03:46:06.805Z,996.19
2019-05-28T03:51:05.687Z,996.23
2019-05-28T03:56:05.683Z,996.23
2019-05-28T04:01:05.612Z,996.26
2019-05-28T04:06:04.689Z,996.19
2019-05-28T04:11:03.649Z,996.28
2019-05-28T04:16:03.699Z,996.19
2019-05-28T04:21:02.642Z,996.29
2019-05-28T04:26:01.646Z,996.29
2019-05-28T04:31:00.684Z,996.37
2019-05-28T04:36:00.678Z,996.20
2019-05-28T04:45:59.613Z,996.29
2019-05-28T04:50:59.615Z,996.37
2019-05-28T04:55:59.607Z,996.32
2019-05-28T05:00:59.620Z,996.32
2019-05-28T05:05:59.628Z,996.22
2019-05-28T05:10:59.636Z,996.17
2019-05-28T05:15:58.610Z,996.25
2019-05-28T05:20:59.641Z,996.26
2019-05-28T05:25:58.689Z,996.34
2019-05-28T05:30:59.619Z,996.34
2019-05-28T05:36:00.632Z,996.31
2019-05-28T05:41:00.597Z,996.31
2019-05-28T05:46:00.660Z,996.31
2019-05-28T05:51:00.586Z,996.39
2019-05-28T05:56:00.585Z,996.31
2019-05-28T06:00:59.632Z,996.29
2019-05-28T06:05:59.627Z,996.24
2019-05-28T06:10:58.572Z,996.33
2019-05-28T06:15:58.615Z,996.17
2019-05-28T06:21:09.720Z,996.24
2019-05-28T06:25:58.643Z,996.25
2019-05-28T06:30:58.586Z,996.28
2019-05-28T06:35:58.598Z,996.16
2019-05-28T06:40:57.598Z,996.25
2019-05-28T06:45:56.676Z,996.26
2019-05-28T06:50:55.711Z,996.30
2019-05-28T06:55:55.671Z,996.34
2019-05-28T07:00:55.613Z,996.45
2019-05-28T07:06:06.276Z,996.45
2019-05-28T07:10:58.151Z,996.59
2019-05-28T07:15:53.686Z,996.68
2019-05-28T07:20:52.743Z,996.64
2019-05-28T07:25:52.641Z,996.69
2019-05-28T07:30:51.580Z,996.65
2019-05-28T07:35:51.629Z,996.62
2019-05-28T07:40:51.574Z,996.59
2019-05-28T07:45:51.647Z,996.52
2019-05-28T07:50:51.620Z,996.46
2019-05-28T07:55:51.589Z,996.54
2019-05-28T08:00:51.845Z,996.58
2019-05-28T08:05:51.574Z,996.63
2019-05-28T08:10:52.013Z,996.52
2019-05-28T08:15:52.040Z,996.55
2019-05-28T08:20:52.010Z,996.53
2019-05-28T08:25:51.965Z,996.54
2019-05-28T08:30:52.003Z,996.50
2019-05-28T08:35:52.020Z,996.50
2019-05-28T08:40:51.065Z,996.61
2019-05-28T08:45:51.066Z,996.63
2019-05-28T08:50:51.104Z,996.55
2019-05-28T08:55:51.047Z,996.63
2019-05-28T09:00:50.029Z,996.63
2019-05-28T09:10:51.139Z,996.62
2019-05-28T09:15:50.007Z,996.59
2019-05-28T09:20:49.305Z,996.63
2019-05-28T09:25:48.011Z,996.55
2019-05-28T09:30:48.024Z,996.60
2019-05-28T09:36:05.887Z,996.48
2019-05-28T09:40:50.738Z,996.48
2019-05-28T09:45:47.173Z,996.55
2019-05-28T09:50:47.983Z,996.47
2019-05-28T09:55:47.010Z,996.50
2019-05-28T10:00:58.381Z,996.45
2019-05-28T10:05:58.645Z,996.52
2019-05-28T10:10:47.018Z,996.49
2019-05-28T10:15:47.123Z,996.53
2019-05-28T10:20:47.958Z,996.53
2019-05-28T10:25:47.952Z,996.64
2019-05-28T10:30:47.321Z,996.55
2019-05-28T10:35:46.935Z,996.56
2019-05-28T10:40:46.960Z,996.48
2019-05-28T10:45:46.973Z,996.67
2019-05-28T10:50:46.989Z,996.98
2019-05-28T10:55:46.071Z,997.20
2019-05-28T11:00:45.123Z,997.48
2019-05-28T11:05:45.005Z,997.63
2019-05-28T11:10:44.956Z,997.73
2019-05-28T11:15:46.067Z,997.91
2019-05-28T11:20:45.064Z,997.86
2019-05-28T11:25:45.066Z,997.80
2019-05-28T11:30:44.904Z,997.77
2019-05-28T11:35:45.011Z,997.88
2019-05-28T11:40:44.954Z,997.97
2019-05-28T11:45:43.955Z,998.07
2019-05-28T11:50:43.144Z,998.12
2019-05-28T11:55:42.935Z,998.22
2019-05-28T12:00:43.026Z,998.25
2019-05-28T12:05:42.986Z,998.10
2019-05-28T12:10:42.940Z,998.15
2019-05-28T12:15:42.945Z,998.17
2019-05-28T12:20:43.020Z,998.23
2019-05-28T12:25:42.992Z,998.29
2019-05-28T12:30:42.259Z,998.43
2019-05-28T12:35:42.814Z,998.39
2019-05-28T12:40:47.761Z,998.38
2019-05-28T12:45:42.017Z,998.47
2019-05-28T12:50:42.003Z,998.50
2019-05-28T12:55:42.048Z,998.53
2019-05-28T13:00:41.186Z,998.51
2019-05-28T13:05:41.041Z,998.57
2019-05-28T13:10:39.943Z,998.54
2019-05-28T13:15:42.614Z,998.58
2019-05-28T13:20:39.852Z,998.68
2019-05-28T13:25:39.950Z,998.73
2019-05-28T13:30:39.317Z,998.80
2019-05-28T13:35:38.987Z,998.75
2019-05-28T13:40:39.922Z,998.89
2019-05-28T13:45:39.966Z,999.01
2019-05-28T13:50:39.976Z,999.01
2019-05-28T13:55:39.930Z,999.04
2019-05-28T14:00:39.973Z,999.07
2019-05-28T14:05:39.946Z,999.19
2019-05-28T14:10:39.926Z,999.13
2019-05-28T14:15:39.269Z,999.23
2019-05-28T14:20:38.936Z,999.22
2019-05-28T14:25:38.937Z,999.28
2019-05-28T14:30:38.928Z,999.28
2019-05-28T14:35:38.874Z,999.37
2019-05-28T14:40:39.177Z,999.41
2019-05-28T14:45:38.902Z,999.47
2019-05-28T14:50:38.939Z,999.42
2019-05-28T14:55:38.355Z,999.42
2019-05-28T15:00:38.910Z,999.53
2019-05-28T15:05:38.890Z,999.59
2019-05-28T15:10:39.146Z,999.68
2019-05-28T15:15:38.979Z,999.71
2019-05-28T15:20:38.910Z,999.78
2019-05-28T15:25:38.965Z,999.79
2019-05-28T15:30:38.043Z,999.86
2019-05-28T15:35:38.006Z,1000.18
2019-05-28T15:40:37.987Z,1000.26
2019-05-28T15:45:37.950Z,1000.34
2019-05-28T15:50:37.944Z,1000.50
2019-05-28T15:55:36.969Z,1000.54
2019-05-28T16:00:37.903Z,1000.60
2019-05-28T16:05:38.929Z,1000.66
2019-05-28T16:10:39.889Z,1000.61
2019-05-28T16:15:40.885Z,1000.68
2019-05-28T16:20:40.861Z,1000.74
2019-05-28T16:25:41.907Z,1000.80
2019-05-28T16:30:41.039Z,1000.95
2019-05-28T16:35:41.954Z,1001.00
2019-05-28T16:40:41.901Z,1001.03
2019-05-28T16:45:41.883Z,1001.08
2019-05-28T16:50:40.994Z,1001.22
2019-05-28T16:55:42.252Z,1001.28
2019-05-28T17:00:41.985Z,1001.33
2019-05-28T17:05:42.038Z,1001.35
2019-05-28T17:10:41.073Z,1001.48
2019-05-28T17:15:40.928Z,1001.61
2019-05-28T17:20:40.953Z,1001.64
2019-05-28T17:25:40.318Z,1001.62
2019-05-28T17:30:42.447Z,1001.77
2019-05-28T17:35:40.037Z,1001.83
2019-05-28T17:40:48.407Z,1001.93
2019-05-28T17:45:39.878Z,1001.95
2019-05-28T17:50:38.921Z,1002.08
2019-05-28T17:55:39.914Z,1002.07
2019-05-28T18:00:39.126Z,1002.28
2019-05-28T18:05:38.895Z,1002.35
2019-05-28T18:10:38.840Z,1002.48
2019-05-28T18:15:37.969Z,1002.56
2019-05-28T18:20:37.134Z,1002.61
2019-05-28T18:25:35.935Z,1002.67
2019-05-28T18:30:34.900Z,1002.69
2019-05-28T18:35:34.921Z,1002.79
2019-05-28T18:40:34.868Z,1002.87
2019-05-28T18:45:34.887Z,1002.90
2019-05-28T18:50:34.885Z,1003.06
2019-05-28T18:55:33.907Z,1003.19
2019-05-28T19:00:32.858Z,1003.19
2019-05-28T19:05:32.175Z,1003.27
2019-05-28T19:10:31.906Z,1003.30
2019-05-28T19:15:31.886Z,1003.34
2019-05-28T19:20:31.833Z,1003.37
2019-05-28T19:25:30.963Z,1003.47
2019-05-28T19:30:31.899Z,1003.61
2019-05-28T19:35:30.901Z,1003.63
2019-05-28T19:40:31.860Z,1003.73
2019-05-28T19:45:31.877Z,1003.86
2019-05-28T19:50:31.879Z,1004.02
2019-05-28T19:55:31.083Z,1004.09
2019-05-28T20:00:30.889Z,1004.14
2019-05-28T20:05:30.858Z,1004.26
2019-05-28T20:10:29.873Z,1004.42
2019-05-28T20:15:30.993Z,1004.39
2019-05-28T20:20:29.914Z,1004.54
2019-05-28T20:25:29.868Z,1004.60
2019-05-28T20:30:30.011Z,1004.62
2019-05-28T20:35:31.150Z,1004.75
2019-05-28T20:40:29.855Z,1004.72
2019-05-28T20:45:29.046Z,1004.86
2019-05-28T20:50:28.914Z,1004.80
2019-05-28T21:00:27.866Z,1004.93
2019-05-28T21:05:26.839Z,1004.98
2019-05-28T21:10:26.851Z,1005.01
2019-05-28T21:15:25.981Z,1005.06
2019-05-28T21:20:25.201Z,1005.16
2019-05-28T21:25:23.924Z,1005.22
2019-05-28T21:30:23.828Z,1005.25
2019-05-28T21:35:23.887Z,1005.35
2019-05-28T21:40:22.863Z,1005.37
2019-05-28T21:45:22.849Z,1005.42
2019-05-28T21:50:22.972Z,1005.50
2019-05-28T21:55:22.886Z,1005.60
2019-05-28T22:00:22.061Z,1005.57
2019-05-28T22:05:22.869Z,1005.72
2019-05-28T22:10:21.810Z,1005.84
2019-05-28T22:15:23.624Z,1005.86
2019-05-28T22:20:21.821Z,1005.97
2019-05-28T22:25:21.349Z,1006.01
2019-05-28T22:30:21.838Z,1006.02
2019-05-28T22:35:20.840Z,1006.15
2019-05-28T22:40:20.849Z,1006.13
2019-05-28T22:45:20.822Z,1006.32
2019-05-28T22:50:23.049Z,1006.35
2019-05-28T22:55:20.862Z,1006.38
2019-05-28T23:00:20.199Z,1006.47
2019-05-28T23:05:19.906Z,1006.46
2019-05-28T23:10:18.812Z,1006.45
2019-05-28T23:15:17.803Z,1006.54
2019-05-28T23:20:17.822Z,1006.55
2019-05-28T23:25:17.866Z,1006.64
2019-05-28T23:30:24.804Z,1006.68
2019-05-28T23:35:17.833Z,1006.62
2019-05-28T23:40:17.242Z,1006.77
2019-05-28T23:45:17.801Z,1006.92
2019-05-28T23:50:18.199Z,1007.04
2019-05-28T23:55:18.007Z,1007.08
